Time;durP1;ratioP1;P1;durP2;ratioP2;P2;SDS_P1;SDS_P2;PMS_P1;PMS_P2;Temp;Humidity;BMP_temperature;BMP_pressure;BME280_temperature;BME280_humidity;BME280_pressure;Samples;Min_cycle;Max_cycle;Signal;HPM_P1;HPM_P2
2022/07/25 02:04:57;;;;;;;;;;;;;;;26.28;100.00;98300.59;4840419;29;19974;-69
2022/07/25 02:07:24;;;;;;;;;;;;;;;26.22;100.00;98294.00;4828269;29;19974;-69
2022/07/25 02:09:51;;;;;;;;;;;;;;;26.18;100.00;98299.19;4844940;29;20352;-69
2022/07/25 02:12:22;;;;;;;;;;;;;;;26.09;100.00;98300.06;4844740;29;19945;-69
2022/07/25 02:14:49;;;;;;;;;;;;;;;25.95;100.00;98303.81;4853477;29;19955;-69
2022/07/25 02:17:16;;;;;;;;;;;;;;;25.86;100.00;98300.31;4846129;29;19974;-69
2022/07/25 02:19:44;;;;;;;;;;;;;;;25.78;100.00;98296.28;4844196;29;19952;-69
2022/07/25 02:22:11;;;;;;;;;;;;;;;25.72;100.00;98290.50;4844007;29;20383;-69
2022/07/25 02:24:38;;;;;;;;;;;;;;;25.70;100.00;98298.03;4843629;29;19947;-69
2022/07/25 02:27:06;;;;;;;;;;;;;;;25.64;100.00;98297.16;4843799;29;20647;-69
2022/07/25 02:29:33;;;;;;;;;;;;;;;25.63;100.00;98290.63;4843930;29;19957;-69
2022/07/25 02:32:00;;;;;;;;;;;;;;;25.61;100.00;98301.00;4844626;29;19956;-69
2022/07/25 02:34:28;;;;;;;;;;;;;;;25.64;100.00;98292.22;4844098;29;19947;-69
2022/07/25 02:36:56;;;;;;;;;;;;;;;25.61;100.00;98290.34;4844344;29;19960;-69
2022/07/25 02:39:24;;;;;;;;;;;;;;;25.50;100.00;98293.06;4843934;29;19953;-69
2022/07/25 02:41:51;;;;;;;;;;;;;;;25.40;100.00;98288.72;4844337;29;19964;-69
2022/07/25 02:44:18;;;;;;;;;;;;;;;25.41;100.00;98296.78;4844494;29;19982;-69
2022/07/25 02:46:45;;;;;;;;;;;;;;;25.44;100.00;98295.84;4843782;29;19952;-69
2022/07/25 02:49:13;;;;;;;;;;;;;;;25.44;100.00;98297.88;4844099;29;19965;-69
2022/07/25 02:51:40;;;;;;;;;;;;;;;25.42;100.00;98286.94;4847749;29;19951;-69
2022/07/25 02:54:07;;;;;;;;;;;;;;;25.42;100.00;98289.78;4847566;29;19956;-69
2022/07/25 02:56:34;;;;;;;;;;;;;;;25.41;100.00;98288.19;4847276;29;19953;-69
2022/07/25 02:59:02;;;;;;;;;;;;;;;25.41;100.00;98285.34;4847232;29;19966;-69
2022/07/25 03:01:29;;;;;;;;;;;;;;;25.47;100.00;98285.47;4847309;29;19950;-69
2022/07/25 03:03:56;;;;;;;;;;;;;;;25.45;100.00;98282.31;4845397;29;19978;-69
2022/07/25 03:06:24;;;;;;;;;;;;;;;25.47;100.00;98281.81;4847045;29;19968;-69
2022/07/25 03:08:51;;;;;;;;;;;;;;;25.42;100.00;98286.94;4846799;29;19967;-69
2022/07/25 03:11:18;;;;;;;;;;;;;;;25.41;100.00;98285.34;4847257;29;19956;-69
2022/07/25 03:13:45;;;;;;;;;;;;;;;25.44;100.00;98284.38;4846590;29;19959;-69
2022/07/25 03:16:13;;;;;;;;;;;;;;;25.44;100.00;98289.28;4847259;29;20246;-69
2022/07/25 03:18:40;;;;;;;;;;;;;;;25.43;100.00;98284.84;4846372;29;20351;-69
2022/07/25 03:21:07;;;;;;;;;;;;;;;25.42;100.00;98286.94;4847243;29;19956;-69
2022/07/25 03:23:34;;;;;;;;;;;;;;;25.40;100.00;98282.97;4846758;29;20224;-69
2022/07/25 03:26:02;;;;;;;;;;;;;;;25.37;100.00;98290.50;4846487;29;19976;-69
2022/07/25 03:28:29;;;;;;;;;;;;;;;25.36;100.00;98293.84;4846792;29;19967;-69
2022/07/25 03:30:56;;;;;;;;;;;;;;;25.36;100.00;98297.50;4846625;29;19950;-69
2022/07/25 03:33:24;;;;;;;;;;;;;;;25.34;100.00;98294.34;4846561;29;19955;-69
2022/07/25 03:35:51;;;;;;;;;;;;;;;25.36;100.00;98293.84;4846820;29;19958;-69
2022/07/25 03:38:18;;;;;;;;;;;;;;;25.33;100.00;98297.72;4846496;29;20331;-69
2022/07/25 03:40:45;;;;;;;;;;;;;;;25.31;100.00;98298.19;4846672;29;19952;-69
2022/07/25 03:43:13;;;;;;;;;;;;;;;25.28;100.00;98292.69;4846131;29;19953;-69
2022/07/25 03:45:40;;;;;;;;;;;;;;;25.29;100.00;98288.53;4846814;29;19947;-69
2022/07/25 03:48:07;;;;;;;;;;;;;;;25.25;100.00;98285.88;4846637;29;20230;-69
2022/07/25 03:50:35;;;;;;;;;;;;;;;25.25;100.00;98291.63;4846886;29;19956;-69
2022/07/25 03:53:02;;;;;;;;;;;;;;;25.22;100.00;98289.75;4845987;29;19955;-69
2022/07/25 03:55:29;;;;;;;;;;;;;;;25.24;100.00;98295.75;4846605;29;19949;-69
2022/07/25 03:57:57;;;;;;;;;;;;;;;25.22;100.00;98306.13;4846261;29;19953;-69
2022/07/25 04:00:24;;;;;;;;;;;;;;;25.21;100.00;98293.13;4846034;29;20348;-69
2022/07/25 04:02:51;;;;;;;;;;;;;;;25.15;100.00;98293.00;4846011;29;19974;-69
2022/07/25 04:05:19;;;;;;;;;;;;;;;25.16;100.00;98294.56;4846205;29;19955;-69
2022/07/25 04:07:46;;;;;;;;;;;;;;;25.18;100.00;98299.81;4845356;29;20262;-69
2022/07/25 04:10:13;;;;;;;;;;;;;;;25.20;100.00;98298.03;4846089;29;19950;-69
2022/07/25 04:12:41;;;;;;;;;;;;;;;25.25;100.00;98308.00;4846350;29;19977;-69
2022/07/25 04:15:09;;;;;;;;;;;;;;;25.29;100.00;98306.50;4845273;29;19951;-69
2022/07/25 04:17:36;;;;;;;;;;;;;;;25.30;100.00;98302.38;4846582;29;19953;-69
2022/07/25 04:20:05;;;;;;;;;;;;;;;25.22;100.00;98306.13;4845333;29;19955;-69
2022/07/25 04:22:32;;;;;;;;;;;;;;;25.12;100.00;98302.59;4846237;29;20408;-69
2022/07/25 04:25:00;;;;;;;;;;;;;;;25.12;100.00;98302.59;4845820;29;20251;-69
2022/07/25 04:27:27;;;;;;;;;;;;;;;25.09;100.00;98303.56;4845656;29;19950;-69
2022/07/25 04:29:55;;;;;;;;;;;;;;;25.14;100.00;98308.59;4845904;29;19974;-69
2022/07/25 04:32:22;;;;;;;;;;;;;;;25.24;100.00;98307.19;4845435;29;19957;-69
2022/07/25 04:34:51;;;;;;;;;;;;;;;25.33;100.00;98315.66;4845611;29;19953;-69
2022/07/25 04:37:18;;;;;;;;;;;;;;;25.50;100.00;98312.31;4845055;29;20246;-69
2022/07/25 04:39:45;;;;;;;;;;;;;;;25.67;100.00;98316.19;4845802;29;19951;-69
2022/07/25 04:42:12;;;;;;;;;;;;;;;25.87;100.00;98313.34;4845601;29;19963;-69
2022/07/25 04:44:40;;;;;;;;;;;;;;;26.06;100.00;98315.44;4845714;29;19955;-69
2022/07/25 04:47:07;;;;;;;;;;;;;;;26.26;100.00;98329.00;4844135;29;19953;-69
2022/07/25 04:49:34;;;;;;;;;;;;;;;26.57;100.00;98334.81;4845537;29;19968;-69
2022/07/25 04:52:01;;;;;;;;;;;;;;;26.81;100.00;98330.91;4846093;29;19953;-69
2022/07/25 04:54:28;;;;;;;;;;;;;;;27.17;100.00;98335.91;4843919;29;19956;-69
2022/07/25 04:56:56;;;;;;;;;;;;;;;27.59;100.00;98329.47;4845197;29;19956;-69
2022/07/25 04:59:23;;;;;;;;;;;;;;;27.91;100.00;98337.50;4845116;29;19947;-69
2022/07/25 05:01:51;;;;;;;;;;;;;;;28.27;100.00;98332.22;4844667;29;19953;-69
2022/07/25 05:04:18;;;;;;;;;;;;;;;28.82;100.00;98328.72;4845175;29;20000;-69
2022/07/25 05:06:45;;;;;;;;;;;;;;;29.05;100.00;98333.97;4845025;29;19947;-69
2022/07/25 05:09:12;;;;;;;;;;;;;;;29.57;100.00;98333.47;4845112;29;19975;-69
2022/07/25 05:11:40;;;;;;;;;;;;;;;29.76;100.00;98334.50;4844564;29;19955;-69
2022/07/25 05:14:09;;;;;;;;;;;;;;;30.15;100.00;98337.31;4844516;29;19951;-69
2022/07/25 05:16:36;;;;;;;;;;;;;;;30.54;100.00;98335.81;4844787;29;19956;-69
2022/07/25 05:19:04;;;;;;;;;;;;;;;30.74;100.00;98333.91;4845200;29;19946;-69
2022/07/25 05:21:48;;;;;;;;;;;;;;;30.82;100.00;98338.56;5181922;24;19969;31
2022/07/25 05:24:16;;;;;;;;;;;;;;;31.19;100.00;98347.50;4804164;29;19957;-69
2022/07/25 05:26:43;;;;;;;;;;;;;;;31.62;100.00;98344.78;4804986;29;20247;-69
2022/07/25 05:29:10;;;;;;;;;;;;;;;31.74;98.63;98348.38;4800528;29;19971;-69
2022/07/25 05:31:38;;;;;;;;;;;;;;;32.03;97.36;98349.66;4806189;29;19965;-69
2022/07/25 05:34:05;;;;;;;;;;;;;;;32.22;94.32;98345.50;4809454;29;19955;-69
2022/07/25 05:36:32;;;;;;;;;;;;;;;32.40;94.27;98338.94;4809638;29;20256;-69
2022/07/25 05:39:00;;;;;;;;;;;;;;;32.03;96.04;98346.78;4809545;29;19950;-69
2022/07/25 05:41:27;;;;;;;;;;;;;;;31.89;97.25;98347.97;4804014;29;20300;-69
2022/07/25 05:43:54;;;;;;;;;;;;;;;31.68;98.45;98341.84;4791858;30;19953;-69
2022/07/25 05:46:21;;;;;;;;;;;;;;;31.50;99.76;98336.75;4790666;30;19953;-69
2022/07/25 05:48:49;;;;;;;;;;;;;;;31.35;100.00;98339.25;4800629;29;19971;-69
2022/07/25 05:51:16;;;;;;;;;;;;;;;31.40;100.00;98336.28;4809396;29;19957;-69
2022/07/25 05:53:43;;;;;;;;;;;;;;;31.40;100.00;98344.19;4809895;29;19947;-69
2022/07/25 05:56:10;;;;;;;;;;;;;;;31.33;100.00;98344.75;4809219;29;19957;-69
2022/07/25 05:58:39;;;;;;;;;;;;;;;31.13;100.00;98340.97;4803559;29;19958;-69
2022/07/25 06:01:07;;;;;;;;;;;;;;;30.90;100.00;98341.69;4803217;29;19949;-69
2022/07/25 06:03:34;;;;;;;;;;;;;;;30.88;100.00;98339.31;4809049;29;19960;-69
2022/07/25 06:06:01;;;;;;;;;;;;;;;30.80;100.00;98341.19;4809400;29;19949;-69
2022/07/25 06:08:29;;;;;;;;;;;;;;;30.66;100.00;98336.56;4808961;29;19958;-69
2022/07/25 06:10:57;;;;;;;;;;;;;;;30.73;100.00;98338.88;4808897;29;19971;-69
2022/07/25 06:13:25;;;;;;;;;;;;;;;30.80;100.00;98340.41;4808988;29;19948;-69
2022/07/25 06:15:53;;;;;;;;;;;;;;;30.83;100.00;98345.91;4794851;29;20290;-69
2022/07/25 06:18:20;;;;;;;;;;;;;;;30.74;100.00;98339.69;4804420;29;19954;-69
2022/07/25 06:20:47;;;;;;;;;;;;;;;30.72;100.00;98336.50;4800302;29;19955;-69
2022/07/25 06:23:15;;;;;;;;;;;;;;;30.80;100.00;98338.31;4802611;29;19975;-71
2022/07/25 06:25:43;;;;;;;;;;;;;;;30.70;100.00;98334.16;4803101;29;19963;-70
2022/07/25 06:28:13;;;;;;;;;;;;;;;30.62;100.00;98327.38;4812158;29;20037;-70
2022/07/25 06:30:40;;;;;;;;;;;;;;;30.67;100.00;98334.44;4809164;29;19966;-70
2022/07/25 06:33:08;;;;;;;;;;;;;;;30.66;100.00;98327.91;4794290;29;19955;-70
2022/07/25 06:35:35;;;;;;;;;;;;;;;30.74;100.00;98334.66;4806046;29;20369;-70
2022/07/25 06:38:03;;;;;;;;;;;;;;;30.78;100.00;98329.41;4794696;29;19950;-70
2022/07/25 06:40:30;;;;;;;;;;;;;;;30.80;100.00;98323.88;4794310;29;19951;-70
2022/07/25 06:42:58;;;;;;;;;;;;;;;30.80;100.00;98323.09;4800319;29;19956;-70
2022/07/25 06:45:25;;;;;;;;;;;;;;;30.76;100.00;98322.59;4792028;29;19954;-70
2022/07/25 06:47:52;;;;;;;;;;;;;;;30.79;100.00;98321.53;4798682;29;19978;-70
2022/07/25 06:50:19;;;;;;;;;;;;;;;30.83;100.00;98324.91;4801025;29;19962;-70
2022/07/25 06:52:47;;;;;;;;;;;;;;;31.01;100.00;98319.28;4797320;29;19948;-70
2022/07/25 06:55:14;;;;;;;;;;;;;;;31.06;100.00;98318.47;4796365;29;20709;-70
2022/07/25 06:57:42;;;;;;;;;;;;;;;31.05;100.00;98321.88;4796577;29;19953;-70
2022/07/25 07:00:10;;;;;;;;;;;;;;;31.23;100.00;98321.19;4797199;29;20857;-70
2022/07/25 07:02:48;;;;;;;;;;;;;;;31.27;100.00;98324.59;4792310;29;19957;-70
2022/07/25 07:05:16;;;;;;;;;;;;;;;31.42;99.66;98330.00;4796925;29;20366;-70
2022/07/25 07:07:44;;;;;;;;;;;;;;;31.48;100.00;98325.75;4786626;29;20250;-70
2022/07/25 07:10:13;;;;;;;;;;;;;;;31.38;100.00;98321.59;4808805;29;19965;-70
2022/07/25 07:12:41;;;;;;;;;;;;;;;31.53;100.00;98324.13;4803694;29;20229;-70
2022/07/25 07:15:08;;;;;;;;;;;;;;;31.51;100.00;98326.78;4797263;29;19954;-70
2022/07/25 07:17:36;;;;;;;;;;;;;;;31.67;100.00;98329.50;4799086;29;19953;-70
2022/07/25 07:20:04;;;;;;;;;;;;;;;31.66;100.00;98330.06;4791868;29;20254;-70
2022/07/25 07:22:31;;;;;;;;;;;;;;;31.60;100.00;98329.31;4795662;29;19973;-70
2022/07/25 07:24:58;;;;;;;;;;;;;;;31.71;100.00;98329.22;4795821;29;19965;-70
2022/07/25 07:27:26;;;;;;;;;;;;;;;31.71;100.00;98327.13;4801382;29;20033;-70
2022/07/25 07:29:53;;;;;;;;;;;;;;;31.62;100.00;98321.66;4808642;29;19973;-70
2022/07/25 07:32:20;;;;;;;;;;;;;;;31.59;100.00;98321.97;4809792;29;20379;-70
2022/07/25 07:34:47;;;;;;;;;;;;;;;31.55;100.00;98315.69;4800652;29;19958;-70
2022/07/25 07:37:15;;;;;;;;;;;;;;;31.60;100.00;98317.75;4793997;29;19948;-69
2022/07/25 07:39:42;;;;;;;;;;;;;;;31.62;100.00;98318.78;4795077;29;19951;-69
2022/07/25 07:42:09;;;;;;;;;;;;;;;31.78;100.00;98322.81;4805892;29;20374;-69
2022/07/25 07:44:36;;;;;;;;;;;;;;;31.86;100.00;98323.00;4797837;29;19949;-69
2022/07/25 07:47:04;;;;;;;;;;;;;;;31.83;100.00;98325.66;4794851;29;19956;-69
2022/07/25 07:49:31;;;;;;;;;;;;;;;31.95;100.00;98319.75;4794211;29;19959;-69
2022/07/25 07:51:58;;;;;;;;;;;;;;;32.02;100.00;98319.16;4787028;29;19950;-69
2022/07/25 07:57:12;;;;;;;;;;;;;;;31.51;100.00;98310.22;4791211;29;20358;-69
2022/07/25 07:59:41;;;;;;;;;;;;;;;31.61;100.00;98319.31;4799115;29;19959;-69
2022/07/25 08:02:08;;;;;;;;;;;;;;;31.35;100.00;98319.03;4802620;29;20210;-69
2022/07/25 08:04:35;;;;;;;;;;;;;;;31.40;100.00;98303.75;4805520;29;19965;-69
2022/07/25 08:07:02;;;;;;;;;;;;;;;31.59;100.00;98304.63;4791627;30;20344;-69
2022/07/25 08:09:30;;;;;;;;;;;;;;;31.74;100.00;98316.56;4792677;30;19950;-69
2022/07/25 08:11:57;;;;;;;;;;;;;;;31.87;100.00;98318.78;4792787;30;19955;-69
2022/07/25 08:14:24;;;;;;;;;;;;;;;31.56;100.00;98309.38;4792366;29;19958;-69
2022/07/25 08:16:52;;;;;;;;;;;;;;;31.78;97.99;98317.03;4796394;29;19948;-69
2022/07/25 08:19:20;;;;;;;;;;;;;;;31.80;98.97;98312.28;4792531;29;19951;-69
2022/07/25 08:21:49;;;;;;;;;;;;;;;31.88;99.54;98312.47;4792308;29;19957;-69
2022/07/25 08:24:16;;;;;;;;;;;;;;;31.94;99.07;98316.06;4792620;30;19978;-69
2022/07/25 08:26:43;;;;;;;;;;;;;;;31.90;96.92;98311.91;4806181;29;19955;-69
2022/07/25 08:29:10;;;;;;;;;;;;;;;31.77;100.00;98312.56;4802045;29;19958;-69
2022/07/25 08:31:44;;;;;;;;;;;;;;;31.96;100.00;98307.63;4796418;29;19973;-70
2022/07/25 08:34:12;;;;;;;;;;;;;;;32.04;100.00;98302.81;4793114;29;19956;-69
2022/07/25 08:36:39;;;;;;;;;;;;;;;32.10;98.01;98305.66;4798247;29;19959;-69
2022/07/25 08:39:06;;;;;;;;;;;;;;;31.93;99.73;98305.84;4802703;29;19957;-69
2022/07/25 08:41:34;;;;;;;;;;;;;;;31.99;97.88;98305.78;4800925;29;19954;-69
2022/07/25 08:44:01;;;;;;;;;;;;;;;32.05;97.27;98298.63;4792055;29;19973;-69
2022/07/25 08:46:29;;;;;;;;;;;;;;;32.13;99.93;98302.44;4795506;29;19950;-70
2022/07/25 08:48:56;;;;;;;;;;;;;;;32.42;98.70;98306.56;4799780;29;20340;-69
2022/07/25 08:51:24;;;;;;;;;;;;;;;32.50;97.81;98298.03;4791852;29;19964;-69
2022/07/25 08:53:52;;;;;;;;;;;;;;;32.55;94.90;98297.97;4792359;29;19957;-69
2022/07/25 08:56:19;;;;;;;;;;;;;;;32.70;94.00;98297.50;4792348;30;20213;-69
2022/07/25 08:58:48;;;;;;;;;;;;;;;32.70;92.80;98292.50;4792202;29;20365;-69
2022/07/25 09:01:16;;;;;;;;;;;;;;;32.73;93.21;98302.19;4789589;29;19950;-69
2022/07/25 09:03:43;;;;;;;;;;;;;;;32.62;89.52;98293.69;4794567;29;19962;-69
2022/07/25 09:06:14;;;;;;;;;;;;;;;32.70;93.08;98289.59;4793175;29;20433;-69
2022/07/25 09:08:54;;;;;;;;;;;;;;;32.53;96.36;98280.38;4795517;29;19957;-69
2022/07/25 09:11:29;;;;;;;;;;;;;;;32.46;96.68;98284.66;4791372;29;20489;-69
2022/07/25 09:14:00;;;;;;;;;;;;;;;32.40;93.78;98275.25;4786210;29;20435;-69
2022/07/25 09:16:29;;;;;;;;;;;;;;;32.44;95.97;98284.44;4804885;29;20301;-69
2022/07/25 09:19:14;;;;;;;;;;;;;;;32.47;93.55;98282.56;4795844;29;19950;-69
2022/07/25 09:21:43;;;;;;;;;;;;;;;32.36;92.74;98279.78;4805584;29;19951;-69
2022/07/25 09:24:11;;;;;;;;;;;;;;;32.61;95.30;98275.53;4790970;30;19967;-69
2022/07/25 09:26:46;;;;;;;;;;;;;;;32.51;95.03;98274.34;4792643;29;19954;-70
2022/07/25 09:29:21;;;;;;;;;;;;;;;32.34;91.89;98265.09;4792307;29;20235;-70
2022/07/25 09:31:48;;;;;;;;;;;;;;;32.56;92.59;98267.69;4790636;29;19975;-70
2022/07/25 09:34:17;;;;;;;;;;;;;;;32.54;91.82;98261.69;4793124;29;19950;-69
2022/07/25 09:36:53;;;;;;;;;;;;;;;32.52;88.08;98269.34;4792961;29;19955;-69
2022/07/25 09:39:31;;;;;;;;;;;;;;;32.54;89.42;98261.69;4798386;29;19953;-69
2022/07/25 09:41:59;;;;;;;;;;;;;;;32.31;88.50;98269.06;4796706;29;19948;-69
2022/07/25 09:44:29;;;;;;;;;;;;;;;32.42;90.19;98261.03;4799016;29;19952;-69
2022/07/25 09:46:59;;;;;;;;;;;;;;;32.49;86.02;98277.00;4793892;29;19979;-69
2022/07/25 09:49:37;;;;;;;;;;;;;;;32.56;86.90;98264.81;4793319;29;19963;-69
2022/07/25 09:52:05;;;;;;;;;;;;;;;32.60;87.98;98261.59;4792070;29;19967;-69
2022/07/25 09:54:33;;;;;;;;;;;;;;;32.62;81.65;98259.72;4795033;29;19955;-69
2022/07/25 09:57:00;;;;;;;;;;;;;;;32.75;87.11;98262.66;4792747;29;19961;-69
2022/07/25 09:59:28;;;;;;;;;;;;;;;32.84;85.98;98261.50;4792033;29;19996;-69
2022/07/25 10:02:02;;;;;;;;;;;;;;;32.82;85.43;98267.81;4787012;29;19955;-70
2022/07/25 10:04:40;;;;;;;;;;;;;;;32.88;83.20;98261.94;4793869;29;19948;-70
2022/07/25 10:07:09;;;;;;;;;;;;;;;33.05;81.79;98263.28;4795665;29;19948;-69
2022/07/25 10:09:43;;;;;;;;;;;;;;;33.01;81.02;98262.75;4799322;29;19948;-69
2022/07/25 10:12:12;;;;;;;;;;;;;;;33.06;84.62;98256.13;4787952;29;19973;-69
2022/07/25 10:14:39;;;;;;;;;;;;;;;33.09;81.21;98260.81;4790702;29;19957;-70
2022/07/25 10:17:07;;;;;;;;;;;;;;;33.02;83.05;98261.47;4802935;29;19965;-70
2022/07/25 10:19:43;;;;;;;;;;;;;;;33.04;78.66;98253.00;4804216;29;19952;-70
2022/07/25 10:22:13;;;;;;;;;;;;;;;33.11;85.59;98245.81;4787583;29;19970;-70
2022/07/25 10:24:44;;;;;;;;;;;;;;;33.21;85.60;98249.81;4793275;29;19954;-70
2022/07/25 10:27:13;;;;;;;;;;;;;;;33.33;82.45;98244.63;4786118;29;19958;-70
2022/07/25 10:29:41;;;;;;;;;;;;;;;33.49;81.77;98249.31;4799697;29;19957;-70
2022/07/25 10:32:10;;;;;;;;;;;;;;;33.39;78.42;98242.38;4803646;29;19982;-70
2022/07/25 10:34:37;;;;;;;;;;;;;;;33.30;78.07;98240.72;4805224;29;19952;-70
2022/07/25 10:37:12;;;;;;;;;;;;;;;33.15;74.76;98233.88;4797867;29;19950;-70
2022/07/25 10:39:40;;;;;;;;;;;;;;;33.17;83.66;98237.00;4802257;29;19977;-70
2022/07/25 10:42:11;;;;;;;;;;;;;;;33.40;79.45;98232.38;4804004;29;20348;-69
2022/07/25 10:44:46;;;;;;;;;;;;;;;33.34;78.63;98225.88;4794395;29;20245;-70
2022/07/25 10:47:14;;;;;;;;;;;;;;;33.38;77.96;98218.41;4794920;29;19953;-70
2022/07/25 10:49:44;;;;;;;;;;;;;;;33.49;82.33;98217.41;4793198;29;19962;-70
2022/07/25 10:52:25;;;;;;;;;;;;;;;33.50;76.52;98219.75;4795769;29;20263;-70
2022/07/25 10:55:01;;;;;;;;;;;;;;;33.44;75.16;98221.22;4787510;29;19950;-70
2022/07/25 10:57:29;;;;;;;;;;;;;;;33.49;78.92;98211.63;4792530;29;19950;-70
2022/07/25 11:00:07;;;;;;;;;;;;;;;33.60;76.07;98217.25;4792485;29;19945;-70
2022/07/25 11:02:34;;;;;;;;;;;;;;;33.41;75.70;98216.50;4792491;29;20229;-70
2022/07/25 11:05:03;;;;;;;;;;;;;;;33.55;75.00;98200.75;4791188;29;20073;-70
2022/07/25 11:07:34;;;;;;;;;;;;;;;33.69;76.93;98205.19;4800706;29;19949;-70
2022/07/25 11:10:03;;;;;;;;;;;;;;;33.78;75.61;98209.75;4805499;29;20344;-70
2022/07/25 11:12:32;;;;;;;;;;;;;;;33.59;70.41;98206.97;4794149;29;20286;-70
2022/07/25 11:15:00;;;;;;;;;;;;;;;33.71;72.24;98205.41;4798766;29;20232;-70
2022/07/25 11:17:29;;;;;;;;;;;;;;;33.47;70.32;98205.59;4792711;29;20256;-70
2022/07/25 11:19:57;;;;;;;;;;;;;;;33.49;73.23;98191.31;4794125;29;19960;-70
2022/07/25 11:22:25;;;;;;;;;;;;;;;33.56;72.20;98190.69;4794027;29;20265;-70
2022/07/25 11:24:53;;;;;;;;;;;;;;;33.72;73.80;98190.34;4798308;29;19952;-70
2022/07/25 11:27:22;;;;;;;;;;;;;;;33.81;72.67;98192.03;4797276;29;19949;-70
2022/07/25 11:29:49;;;;;;;;;;;;;;;33.90;70.44;98182.84;4802805;29;19952;-70
2022/07/25 11:32:17;;;;;;;;;;;;;;;33.76;67.57;98189.22;4806818;29;19977;-70
2022/07/25 11:34:49;;;;;;;;;;;;;;;33.78;67.34;98180.75;4808187;29;20242;-70
2022/07/25 11:37:17;;;;;;;;;;;;;;;33.86;71.41;98176.63;4796721;29;19950;-70
2022/07/25 11:39:45;;;;;;;;;;;;;;;33.84;65.08;98172.72;4798873;29;19953;-70
2022/07/25 11:42:16;;;;;;;;;;;;;;;33.70;68.92;98175.63;4800006;29;19950;-70
2022/07/25 11:44:45;;;;;;;;;;;;;;;33.66;66.69;98165.69;4807136;29;19958;-70
2022/07/25 11:47:25;;;;;;;;;;;;;;;33.89;66.58;98163.91;4797825;29;19982;-70
2022/07/25 11:49:53;;;;;;;;;;;;;;;33.87;65.11;98166.56;4794828;29;19954;-70
2022/07/25 11:52:22;;;;;;;;;;;;;;;34.05;65.40;98151.16;4797431;29;19975;-70
2022/07/25 11:54:56;;;;;;;;;;;;;;;34.04;63.55;98148.81;4804131;29;19951;-70
2022/07/25 11:57:24;;;;;;;;;;;;;;;34.13;64.70;98157.84;4801572;29;20244;-70
2022/07/25 11:59:52;;;;;;;;;;;;;;;33.95;62.52;98144.22;4795410;29;19952;-70
2022/07/25 12:02:23;;;;;;;;;;;;;;;33.89;63.08;98139.91;4793870;29;19961;-70
2022/07/25 12:04:54;;;;;;;;;;;;;;;33.99;63.25;98135.97;4800907;29;19959;-70
2022/07/25 12:07:32;;;;;;;;;;;;;;;33.89;59.42;98134.09;4797652;29;19955;-70
2022/07/25 12:09:59;;;;;;;;;;;;;;;34.07;61.94;98136.06;4797291;29;19958;-70
2022/07/25 12:12:27;;;;;;;;;;;;;;;34.17;67.06;98132.16;4793135;29;19968;-70
2022/07/25 12:14:54;;;;;;;;;;;;;;;34.31;65.45;98118.34;4800132;29;19950;-70
2022/07/25 12:17:21;;;;;;;;;;;;;;;34.03;60.69;98118.22;4791378;29;19952;-70
2022/07/25 12:19:48;;;;;;;;;;;;;;;34.14;62.87;98101.34;4792820;29;19950;-70
2022/07/25 12:22:16;;;;;;;;;;;;;;;33.80;58.88;98112.13;4792054;29;19984;-70
2022/07/25 12:24:43;;;;;;;;;;;;;;;33.93;60.05;98109.19;4792765;29;20235;-70
2022/07/25 12:27:10;;;;;;;;;;;;;;;34.12;64.83;98106.94;4795383;29;19948;-70
2022/07/25 12:29:37;;;;;;;;;;;;;;;34.24;62.03;98113.25;4801864;29;19950;-70
2022/07/25 12:32:05;;;;;;;;;;;;;;;34.38;61.42;98114.00;4803612;29;19971;-70
2022/07/25 12:34:32;;;;;;;;;;;;;;;34.54;60.57;98121.53;4792586;30;19952;-70
2022/07/25 12:36:59;;;;;;;;;;;;;;;34.62;59.47;98104.97;4792384;29;19949;-70
2022/07/25 12:39:26;;;;;;;;;;;;;;;34.61;54.11;98100.47;4792508;29;19949;-70
2022/07/25 12:41:54;;;;;;;;;;;;;;;34.64;54.53;98116.78;4792726;29;19948;-70
2022/07/25 12:44:21;;;;;;;;;;;;;;;34.60;54.23;98116.38;4795446;29;19946;-70
2022/07/25 12:46:48;;;;;;;;;;;;;;;34.60;54.63;98105.53;4799835;29;19958;-70
2022/07/25 12:49:16;;;;;;;;;;;;;;;34.59;55.75;98106.09;4796119;29;19946;-70
2022/07/25 12:51:43;;;;;;;;;;;;;;;34.38;59.52;98098.09;4801635;29;20013;-70
2022/07/25 12:54:10;;;;;;;;;;;;;;;34.04;55.98;98097.34;4802298;29;19951;-70
2022/07/25 12:56:38;;;;;;;;;;;;;;;33.87;56.77;98096.94;4809282;29;19960;-70
2022/07/25 12:59:05;;;;;;;;;;;;;;;33.75;57.41;98091.97;4799147;29;19959;-70
2022/07/25 13:01:32;;;;;;;;;;;;;;;33.64;60.35;98098.78;4795319;29;19960;-70
2022/07/25 13:03:59;;;;;;;;;;;;;;;33.37;59.46;98086.41;4799622;29;19985;-70
2022/07/25 13:06:28;;;;;;;;;;;;;;;33.26;64.60;98088.75;4796225;29;19945;-70
2022/07/25 13:08:55;;;;;;;;;;;;;;;33.17;62.84;98078.38;4791759;29;20368;-70
2022/07/25 13:11:22;;;;;;;;;;;;;;;33.07;64.86;98065.66;4792109;29;19950;-70
2022/07/25 13:13:50;;;;;;;;;;;;;;;33.06;65.96;98061.22;4798468;29;19991;-70
2022/07/25 13:16:17;;;;;;;;;;;;;;;33.00;62.89;98055.50;4792670;29;20362;-70
2022/07/25 13:18:44;;;;;;;;;;;;;;;33.10;64.48;98058.78;4796225;29;19956;-70
2022/07/25 13:21:11;;;;;;;;;;;;;;;33.17;65.96;98057.31;4792567;29;20306;-70
2022/07/25 13:23:39;;;;;;;;;;;;;;;33.28;63.46;98057.88;4799606;29;19979;-70
2022/07/25 13:26:06;;;;;;;;;;;;;;;33.52;64.13;98056.84;4799025;29;19956;-70
2022/07/25 13:28:34;;;;;;;;;;;;;;;33.70;63.96;98058.81;4795466;29;19954;-70
2022/07/25 13:31:04;;;;;;;;;;;;;;;33.69;59.17;98057.28;4789701;29;19948;-70
2022/07/25 13:33:32;;;;;;;;;;;;;;;33.85;59.56;98064.03;4792455;29;20296;-70
2022/07/25 13:35:59;;;;;;;;;;;;;;;33.94;59.71;98070.16;4791859;29;19979;-70
2022/07/25 13:38:27;;;;;;;;;;;;;;;33.98;59.51;98058.97;4785708;29;19951;-70
2022/07/25 13:40:56;;;;;;;;;;;;;;;34.03;57.95;98065.97;4801314;29;19952;-70
2022/07/25 13:43:24;;;;;;;;;;;;;;;34.08;62.98;98073.81;4798559;29;19951;-70
2022/07/25 13:45:52;;;;;;;;;;;;;;;34.05;59.80;98058.31;4796078;29;19976;-69
2022/07/25 13:48:19;;;;;;;;;;;;;;;34.07;60.00;98067.22;4794725;29;19955;-69
2022/07/25 13:50:56;;;;;;;;;;;;;;;34.09;62.23;98067.41;4785143;29;19953;-70
2022/07/25 13:53:23;;;;;;;;;;;;;;;34.17;58.51;98067.50;4791472;29;19977;-70
2022/07/25 13:55:54;;;;;;;;;;;;;;;34.24;60.20;98066.81;4791444;30;19953;-70
2022/07/25 13:58:22;;;;;;;;;;;;;;;34.30;60.30;98061.66;4791406;29;19948;-70
2022/07/25 14:00:49;;;;;;;;;;;;;;;34.32;61.63;98056.06;4791606;29;19966;-70
2022/07/25 14:03:16;;;;;;;;;;;;;;;34.33;57.79;98046.75;4791350;29;19950;-70
2022/07/25 14:05:44;;;;;;;;;;;;;;;34.46;56.98;98053.84;4790902;29;19959;-70
2022/07/25 14:08:11;;;;;;;;;;;;;;;34.32;56.06;98045.22;4791249;30;19954;-70
2022/07/25 14:10:38;;;;;;;;;;;;;;;34.42;55.52;98045.50;4791379;30;19955;-70
2022/07/25 14:13:05;;;;;;;;;;;;;;;34.49;59.54;98044.78;4790895;29;19971;-70
2022/07/25 14:15:33;;;;;;;;;;;;;;;34.46;60.35;98045.91;4789908;29;20346;-70
2022/07/25 14:18:00;;;;;;;;;;;;;;;34.54;58.53;98032.28;4793890;29;19959;-70
2022/07/25 14:20:27;;;;;;;;;;;;;;;34.50;58.82;98028.16;4795213;29;19957;-70
2022/07/25 14:22:55;;;;;;;;;;;;;;;34.31;57.19;98020.44;4793904;29;19989;-70
2022/07/25 14:25:22;;;;;;;;;;;;;;;34.39;60.74;98017.59;4796702;29;19951;-70
2022/07/25 14:27:49;;;;;;;;;;;;;;;34.38;60.13;98018.19;4792241;29;19947;-70
2022/07/25 14:30:17;;;;;;;;;;;;;;;34.42;59.72;98021.50;4796551;29;19956;-70
2022/07/25 14:32:44;;;;;;;;;;;;;;;34.53;60.91;98012.50;4792467;29;20394;-69
2022/07/25 14:35:12;;;;;;;;;;;;;;;34.47;61.51;98009.75;4796968;29;19958;-69
2022/07/25 14:37:39;;;;;;;;;;;;;;;34.57;59.09;98010.81;4797809;29;20378;-69
2022/07/25 14:40:09;;;;;;;;;;;;;;;34.36;61.90;98004.22;4797728;29;19944;-69
2022/07/25 14:42:37;;;;;;;;;;;;;;;34.18;61.32;98005.22;4794659;29;19951;-69
2022/07/25 14:45:05;;;;;;;;;;;;;;;34.20;62.25;98000.41;4792311;29;19956;-69
2022/07/25 14:47:32;;;;;;;;;;;;;;;34.14;62.37;97993.16;4795154;29;19952;-69
2022/07/25 14:49:59;;;;;;;;;;;;;;;34.05;62.19;97991.56;4794304;29;20234;-69
2022/07/25 14:52:27;;;;;;;;;;;;;;;33.95;62.47;97993.34;4802160;29;19958;-69
2022/07/25 14:54:54;;;;;;;;;;;;;;;33.89;65.65;97986.94;4798134;29;19957;-69